createdAt,value
2023-12-16T00:00:47.792Z,5.10
2023-12-16T00:03:14.801Z,5.10
2023-12-16T00:05:42.006Z,5.10
2023-12-16T00:08:08.923Z,5.10
2023-12-16T00:10:35.851Z,5.10
2023-12-16T00:13:03.089Z,5.00
2023-12-16T00:15:30.377Z,5.00
2023-12-16T00:17:57.253Z,5.10
2023-12-16T00:20:24.330Z,5.10
2023-12-16T00:22:51.174Z,5.10
2023-12-16T00:25:19.092Z,5.10
2023-12-16T00:27:46.740Z,5.10
2023-12-16T00:30:13.838Z,5.10
2023-12-16T00:32:41.385Z,5.10
2023-12-16T00:35:08.770Z,5.10
2023-12-16T00:37:36.899Z,5.10
2023-12-16T00:40:05.365Z,5.10
2023-12-16T00:42:32.255Z,5.00
2023-12-16T00:44:59.071Z,5.00
2023-12-16T00:47:26.849Z,5.00
2023-12-16T00:49:53.993Z,5.10
2023-12-16T00:52:20.958Z,5.10
2023-12-16T00:54:48.422Z,5.00
2023-12-16T00:57:15.421Z,5.00
2023-12-16T00:59:42.488Z,5.00
2023-12-16T01:02:09.318Z,4.90
2023-12-16T01:04:36.233Z,4.90
2023-12-16T01:07:03.645Z,4.90
2023-12-16T01:09:30.675Z,4.90
2023-12-16T01:11:57.783Z,4.90
2023-12-16T01:14:24.604Z,5.00
2023-12-16T01:16:51.407Z,5.00
2023-12-16T01:19:18.413Z,5.00
2023-12-16T01:21:46.044Z,5.00
2023-12-16T01:24:13.309Z,5.00
2023-12-16T01:26:40.218Z,5.00
2023-12-16T01:29:07.034Z,5.00
2023-12-16T01:31:34.546Z,5.00
2023-12-16T01:34:01.585Z,5.00
2023-12-16T01:36:28.483Z,5.00
2023-12-16T01:38:55.416Z,5.00
2023-12-16T01:41:22.334Z,5.00
2023-12-16T01:43:49.191Z,4.90
2023-12-16T01:46:16.572Z,5.00
2023-12-16T01:48:44.174Z,5.00
2023-12-16T01:51:11.296Z,5.00
2023-12-16T01:53:40.782Z,5.00
2023-12-16T01:56:09.423Z,5.00
2023-12-16T01:58:39.009Z,5.00
2023-12-16T02:01:06.411Z,5.10
2023-12-16T02:03:34.186Z,5.10
2023-12-16T02:06:01.870Z,5.10
2023-12-16T02:08:28.723Z,5.10
2023-12-16T02:10:55.645Z,5.20
2023-12-16T02:13:25.232Z,5.10
2023-12-16T02:15:52.284Z,5.20
2023-12-16T02:18:19.318Z,5.20
2023-12-16T02:20:47.482Z,5.20
2023-12-16T02:23:18.675Z,5.20
2023-12-16T02:25:46.282Z,5.20
2023-12-16T02:28:13.250Z,5.10
2023-12-16T02:30:40.225Z,5.10
2023-12-16T02:33:07.181Z,5.10
2023-12-16T02:35:34.800Z,5.10
2023-12-16T02:38:01.952Z,5.10
2023-12-16T02:40:29.126Z,5.00
2023-12-16T02:42:56.287Z,5.00
2023-12-16T02:45:23.361Z,5.00
2023-12-16T02:47:50.265Z,5.00
2023-12-16T02:50:17.426Z,5.10
2023-12-16T02:52:44.325Z,5.00
2023-12-16T02:55:11.208Z,5.00
2023-12-16T02:57:38.312Z,5.00
2023-12-16T03:00:06.215Z,5.00
2023-12-16T03:02:33.083Z,5.00
2023-12-16T03:04:59.897Z,5.00
2023-12-16T03:07:26.837Z,5.00
2023-12-16T03:09:53.724Z,5.00
2023-12-16T03:12:20.890Z,5.00
2023-12-16T03:14:47.798Z,5.00
2023-12-16T03:17:16.829Z,5.00
2023-12-16T03:19:43.788Z,5.10
2023-12-16T03:22:10.809Z,5.00
2023-12-16T03:24:37.695Z,5.10
2023-12-16T03:27:04.811Z,5.00
2023-12-16T03:29:32.383Z,5.10
2023-12-16T03:31:59.523Z,5.10
2023-12-16T03:34:27.191Z,5.00
2023-12-16T03:36:54.165Z,5.00
2023-12-16T03:39:21.286Z,5.00
2023-12-16T03:41:48.086Z,5.00
2023-12-16T03:44:14.922Z,5.00
2023-12-16T03:46:41.782Z,5.00
2023-12-16T03:49:08.784Z,5.00
2023-12-16T03:51:35.654Z,5.10
2023-12-16T03:54:02.459Z,5.10
2023-12-16T03:56:29.391Z,5.10
2023-12-16T03:58:56.194Z,5.10
2023-12-16T04:01:24.470Z,5.10
2023-12-16T04:03:51.574Z,5.20
2023-12-16T04:06:18.466Z,5.20
2023-12-16T04:08:45.270Z,5.20
2023-12-16T04:11:12.152Z,5.20
2023-12-16T04:13:38.966Z,5.20
2023-12-16T04:16:06.407Z,5.20
2023-12-16T04:18:33.953Z,5.20
2023-12-16T04:21:02.694Z,5.20
2023-12-16T04:23:29.933Z,5.20
2023-12-16T04:25:56.973Z,5.20
2023-12-16T04:28:23.811Z,5.20
2023-12-16T04:30:50.705Z,5.20
2023-12-16T04:33:17.805Z,5.30
2023-12-16T04:35:44.656Z,5.30
2023-12-16T04:38:11.509Z,5.20
2023-12-16T04:40:38.370Z,5.30
2023-12-16T04:43:05.294Z,5.30
2023-12-16T04:45:32.219Z,5.30
2023-12-16T04:47:59.114Z,5.30
2023-12-16T04:50:26.075Z,5.30
2023-12-16T04:52:52.888Z,5.30
2023-12-16T04:55:19.701Z,5.30
2023-12-16T04:57:46.747Z,5.30
2023-12-16T05:00:15.079Z,5.30
2023-12-16T05:02:42.541Z,5.30
2023-12-16T05:05:09.526Z,5.30
2023-12-16T05:07:38.886Z,5.30
2023-12-16T05:10:11.395Z,5.30
2023-12-16T05:12:41.381Z,5.30
2023-12-16T05:15:08.899Z,5.30
2023-12-16T05:17:36.035Z,5.30
2023-12-16T05:20:03.477Z,5.30
2023-12-16T05:22:34.953Z,5.30
2023-12-16T05:25:05.830Z,5.30
2023-12-16T05:27:32.701Z,5.30
2023-12-16T05:30:01.955Z,5.30
2023-12-16T05:32:29.708Z,5.30
2023-12-16T05:34:57.597Z,5.30
2023-12-16T05:37:24.655Z,5.30
2023-12-16T05:39:52.542Z,5.30
2023-12-16T05:42:20.165Z,5.30
2023-12-16T05:44:46.999Z,5.30
2023-12-16T05:47:13.808Z,5.30
2023-12-16T05:49:40.736Z,5.30
2023-12-16T05:52:07.708Z,5.30
2023-12-16T05:54:34.728Z,5.40
2023-12-16T05:57:01.629Z,5.40
2023-12-16T05:59:29.175Z,5.40
2023-12-16T06:01:56.520Z,5.40
2023-12-16T06:04:23.822Z,5.40
2023-12-16T06:06:50.674Z,5.40
2023-12-16T06:09:18.450Z,5.30
2023-12-16T06:11:45.373Z,5.30
2023-12-16T06:14:12.208Z,5.30
2023-12-16T06:16:39.111Z,5.40
2023-12-16T06:19:06.110Z,5.30
2023-12-16T06:21:33.064Z,5.40
2023-12-16T06:23:59.909Z,5.40
2023-12-16T06:26:27.357Z,5.40
2023-12-16T06:28:54.522Z,5.40
2023-12-16T06:31:22.166Z,5.40
2023-12-16T06:33:49.342Z,5.40
2023-12-16T06:36:16.394Z,5.30
2023-12-16T06:38:43.460Z,5.30
2023-12-16T06:41:10.394Z,5.30
2023-12-16T06:43:37.276Z,5.30
2023-12-16T06:46:04.511Z,5.30
2023-12-16T06:48:31.556Z,5.30
2023-12-16T06:50:59.137Z,5.30
2023-12-16T06:53:26.425Z,5.30
2023-12-16T06:55:54.312Z,5.40
2023-12-16T06:58:22.003Z,5.30
2023-12-16T07:00:49.584Z,5.30
2023-12-16T07:03:17.222Z,5.40
2023-12-16T07:05:44.190Z,5.30
2023-12-16T07:08:13.112Z,5.40
2023-12-16T07:10:40.231Z,5.40
2023-12-16T07:13:07.084Z,5.30
2023-12-16T07:15:34.003Z,5.30
2023-12-16T07:18:00.860Z,5.30
2023-12-16T07:20:27.676Z,5.30
2023-12-16T07:22:54.520Z,5.30
2023-12-16T07:25:22.096Z,5.30
2023-12-16T07:27:49.194Z,5.30
2023-12-16T07:30:17.514Z,5.40
2023-12-16T07:32:44.500Z,5.40
2023-12-16T07:35:14.521Z,5.40
2023-12-16T07:37:42.719Z,5.40
2023-12-16T07:40:11.572Z,5.40
2023-12-16T07:42:41.807Z,5.40
2023-12-16T07:45:09.909Z,5.40
2023-12-16T07:47:36.943Z,5.40
2023-12-16T07:50:04.838Z,5.40
2023-12-16T07:52:32.307Z,5.40
2023-12-16T07:54:59.345Z,5.40
2023-12-16T07:57:26.384Z,5.40
2023-12-16T07:59:54.761Z,5.40
2023-12-16T08:02:21.895Z,5.50
2023-12-16T08:04:50.382Z,5.50
2023-12-16T08:07:17.283Z,5.50
2023-12-16T08:09:44.170Z,5.50
2023-12-16T08:12:11.106Z,5.50
2023-12-16T08:14:38.476Z,5.50
2023-12-16T08:17:05.391Z,5.50
2023-12-16T08:19:32.340Z,5.50
2023-12-16T08:22:01.328Z,5.60
2023-12-16T08:24:30.663Z,5.60
2023-12-16T08:26:57.784Z,5.60
2023-12-16T08:29:24.655Z,5.60
2023-12-16T08:31:51.579Z,5.60
2023-12-16T08:34:19.979Z,5.70
2023-12-16T08:36:49.874Z,5.70
2023-12-16T08:39:17.074Z,5.70
2023-12-16T08:41:44.660Z,5.70
2023-12-16T08:44:11.615Z,5.60
2023-12-16T08:46:42.619Z,5.60
2023-12-16T08:49:09.710Z,5.70
2023-12-16T08:51:37.168Z,5.60
2023-12-16T08:54:04.146Z,5.70
2023-12-16T08:56:31.353Z,5.70
2023-12-16T08:58:58.267Z,5.70
2023-12-16T09:01:25.161Z,5.60
2023-12-16T09:03:52.253Z,5.70
2023-12-16T09:06:19.289Z,5.70
2023-12-16T09:08:46.172Z,5.80
2023-12-16T09:11:13.178Z,5.80
2023-12-16T09:13:40.162Z,5.80
2023-12-16T09:16:07.396Z,5.80
2023-12-16T09:18:38.385Z,5.80
2023-12-16T09:21:05.666Z,5.90
2023-12-16T09:23:32.566Z,5.90
2023-12-16T09:25:59.407Z,5.90
2023-12-16T09:28:26.269Z,5.90
2023-12-16T09:30:53.174Z,6.00
2023-12-16T09:33:20.534Z,6.00
2023-12-16T09:35:47.630Z,6.10
2023-12-16T09:38:14.500Z,6.00
2023-12-16T09:40:42.392Z,6.00
2023-12-16T09:43:18.755Z,6.10
2023-12-16T09:45:50.059Z,6.00
2023-12-16T09:48:18.289Z,6.00
2023-12-16T09:50:46.065Z,6.00
2023-12-16T09:53:13.695Z,6.00
2023-12-16T09:55:41.716Z,6.00
2023-12-16T09:58:12.702Z,6.00
2023-12-16T10:00:47.297Z,6.00
2023-12-16T10:03:18.246Z,6.00
2023-12-16T10:05:46.690Z,6.00
2023-12-16T10:08:14.081Z,6.10
2023-12-16T10:10:41.426Z,6.10
2023-12-16T10:13:08.837Z,6.10
2023-12-16T10:15:36.052Z,6.10
2023-12-16T10:18:04.547Z,6.10
2023-12-16T10:20:32.173Z,6.10
2023-12-16T10:23:05.163Z,6.10
2023-12-16T10:25:32.941Z,6.10
2023-12-16T10:28:02.014Z,6.20
2023-12-16T10:30:29.605Z,6.20
2023-12-16T10:32:57.704Z,6.20
2023-12-16T10:35:24.958Z,6.20
2023-12-16T10:37:55.753Z,6.20
2023-12-16T10:40:27.349Z,6.20
2023-12-16T10:42:54.606Z,6.30
2023-12-16T10:45:21.985Z,6.30
2023-12-16T10:47:51.726Z,6.30
2023-12-16T10:50:22.133Z,6.20
2023-12-16T10:52:54.357Z,6.10
2023-12-16T10:55:33.110Z,6.20
2023-12-16T10:58:22.643Z,6.30
2023-12-16T11:00:53.254Z,6.30
2023-12-16T11:03:35.124Z,6.30
2023-12-16T11:06:09.126Z,6.30
2023-12-16T11:08:37.320Z,6.40
2023-12-16T11:11:04.891Z,6.50
2023-12-16T11:13:32.561Z,6.50
2023-12-16T11:16:18.638Z,6.60
2023-12-16T11:18:50.511Z,6.70
2023-12-16T11:21:20.367Z,6.90
2023-12-16T11:23:47.729Z,7.10
2023-12-16T11:26:17.173Z,7.30
2023-12-16T11:28:44.103Z,7.40
2023-12-16T11:31:11.992Z,7.40
2023-12-16T11:33:46.812Z,7.40
2023-12-16T11:36:15.399Z,7.50
2023-12-16T11:38:45.380Z,7.50
2023-12-16T11:41:38.831Z,7.50
2023-12-16T11:44:05.729Z,7.50
2023-12-16T11:46:42.389Z,7.60
2023-12-16T11:49:17.810Z,7.70
2023-12-16T11:51:45.737Z,7.70
2023-12-16T11:54:13.572Z,7.80
2023-12-16T11:56:40.826Z,7.80
2023-12-16T11:59:09.215Z,8.00
2023-12-16T12:01:36.901Z,8.20
2023-12-16T12:04:05.750Z,8.20
2023-12-16T12:06:33.827Z,8.20
2023-12-16T12:09:01.369Z,8.20
2023-12-16T12:11:28.326Z,8.30
2023-12-16T12:13:57.443Z,8.50
2023-12-16T12:16:25.140Z,8.70
2023-12-16T12:18:52.300Z,8.70
2023-12-16T12:21:19.259Z,8.90
2023-12-16T12:23:46.098Z,9.10
2023-12-16T12:26:13.092Z,9.20
2023-12-16T12:28:40.029Z,9.20
2023-12-16T12:31:09.398Z,9.30
2023-12-16T12:33:37.123Z,9.20
2023-12-16T12:36:05.099Z,9.10
2023-12-16T12:38:34.466Z,8.80
2023-12-16T12:41:07.358Z,8.70
2023-12-16T12:43:36.660Z,8.60
2023-12-16T12:46:13.747Z,8.50
2023-12-16T12:48:52.773Z,8.40
2023-12-16T12:51:19.798Z,8.40
2023-12-16T12:54:00.219Z,8.30
2023-12-16T12:56:29.402Z,8.20
2023-12-16T12:58:58.238Z,8.20
2023-12-16T13:01:25.310Z,8.20
2023-12-16T13:03:52.320Z,8.10
2023-12-16T13:06:19.390Z,8.10
2023-12-16T13:08:46.339Z,8.00
2023-12-16T13:11:13.191Z,8.00
2023-12-16T13:13:40.049Z,7.90
2023-12-16T13:16:09.195Z,7.80
2023-12-16T13:18:42.042Z,7.80
2023-12-16T13:21:12.574Z,7.60
2023-12-16T13:23:39.623Z,7.60
2023-12-16T13:26:13.544Z,7.70
2023-12-16T13:28:42.360Z,7.60
2023-12-16T13:31:10.027Z,7.60
2023-12-16T13:33:37.684Z,7.50
2023-12-16T13:36:32.437Z,7.40
2023-12-16T13:38:52.445Z,7.30
2023-12-16T13:41:19.465Z,7.30
2023-12-16T13:43:48.506Z,7.30
2023-12-16T13:46:15.528Z,7.20
2023-12-16T13:48:43.638Z,7.20
2023-12-16T13:51:10.532Z,7.20
2023-12-16T13:53:37.419Z,7.20
2023-12-16T13:56:04.779Z,7.20
2023-12-16T13:58:31.652Z,7.20
2023-12-16T14:00:59.219Z,7.20
2023-12-16T14:03:26.149Z,7.20
2023-12-16T14:05:53.242Z,7.20
2023-12-16T14:08:20.098Z,7.10
2023-12-16T14:10:48.444Z,7.10
2023-12-16T14:13:15.286Z,7.20
2023-12-16T14:15:42.500Z,7.10
2023-12-16T14:18:09.457Z,7.10
2023-12-16T14:20:36.396Z,7.10
2023-12-16T14:23:03.283Z,7.10
2023-12-16T14:25:30.169Z,7.10
2023-12-16T14:27:57.009Z,7.00
2023-12-16T14:30:24.511Z,7.00
2023-12-16T14:32:51.604Z,6.90
2023-12-16T14:35:18.635Z,6.90
2023-12-16T14:37:45.546Z,6.90
2023-12-16T14:40:13.068Z,6.90
2023-12-16T14:42:40.043Z,6.90
2023-12-16T14:45:07.612Z,6.90
2023-12-16T14:47:35.019Z,6.90
2023-12-16T14:50:01.974Z,6.90
2023-12-16T14:52:29.045Z,6.90
2023-12-16T14:54:57.022Z,6.90
2023-12-16T14:57:23.886Z,6.90
2023-12-16T14:59:50.812Z,6.90
2023-12-16T15:02:17.642Z,6.80
2023-12-16T15:04:46.284Z,6.80
2023-12-16T15:07:13.401Z,6.70
2023-12-16T15:09:40.506Z,6.60
2023-12-16T15:12:07.662Z,6.60
2023-12-16T15:14:34.698Z,6.60
2023-12-16T15:17:01.530Z,6.60
2023-12-16T15:19:28.473Z,6.60
2023-12-16T15:21:56.082Z,6.60
2023-12-16T15:24:22.950Z,6.60
2023-12-16T15:26:49.891Z,6.50
2023-12-16T15:29:16.840Z,6.50
2023-12-16T15:31:47.398Z,6.50
2023-12-16T15:34:14.458Z,6.50
2023-12-16T15:36:42.956Z,6.40
2023-12-16T15:39:12.328Z,6.40
2023-12-16T15:41:40.243Z,6.40
2023-12-16T15:44:08.596Z,6.30
2023-12-16T15:46:41.916Z,6.30
2023-12-16T15:49:10.392Z,6.20
2023-12-16T15:51:38.543Z,6.30
2023-12-16T15:54:06.191Z,6.20
2023-12-16T15:56:33.838Z,6.20
2023-12-16T15:59:00.774Z,6.20
2023-12-16T16:01:27.747Z,6.20
2023-12-16T16:03:55.256Z,6.20
2023-12-16T16:06:22.128Z,6.10
2023-12-16T16:08:48.990Z,6.10
2023-12-16T16:11:16.046Z,6.10
2023-12-16T16:13:42.860Z,6.10
2023-12-16T16:16:10.205Z,6.10
2023-12-16T16:18:38.247Z,6.10
2023-12-16T16:21:05.496Z,6.00
2023-12-16T16:23:32.415Z,6.00
2023-12-16T16:25:59.288Z,6.00
2023-12-16T16:28:26.134Z,6.00
2023-12-16T16:30:53.689Z,6.00
2023-12-16T16:33:20.718Z,6.00
2023-12-16T16:35:47.733Z,6.00
2023-12-16T16:38:14.607Z,6.00
2023-12-16T16:40:41.469Z,5.90
2023-12-16T16:43:08.334Z,5.90
2023-12-16T16:45:35.286Z,5.90
2023-12-16T16:48:05.064Z,5.90
2023-12-16T16:50:32.047Z,5.90
2023-12-16T16:53:00.153Z,5.90
2023-12-16T16:55:27.074Z,5.80
2023-12-16T16:57:53.934Z,5.80
2023-12-16T17:00:24.226Z,5.80
2023-12-16T17:02:51.648Z,5.80
2023-12-16T17:05:20.621Z,5.80
2023-12-16T17:07:48.686Z,5.80
2023-12-16T17:10:15.511Z,5.70
2023-12-16T17:12:42.985Z,5.70
2023-12-16T17:15:10.411Z,5.70
2023-12-16T17:17:37.534Z,5.70
2023-12-16T17:20:05.457Z,5.70
2023-12-16T17:22:32.335Z,5.70
2023-12-16T17:25:00.724Z,5.60
2023-12-16T17:27:27.592Z,5.60
2023-12-16T17:29:54.436Z,5.60
2023-12-16T17:32:21.350Z,5.60
2023-12-16T17:34:48.483Z,5.50
2023-12-16T17:37:15.333Z,5.50
2023-12-16T17:39:42.374Z,5.50
2023-12-16T17:42:09.918Z,5.50
2023-12-16T17:44:37.473Z,5.40
2023-12-16T17:47:05.120Z,5.40
2023-12-16T17:49:32.102Z,5.40
2023-12-16T17:51:59.126Z,5.40
2023-12-16T17:54:26.093Z,5.40
2023-12-16T17:56:53.070Z,5.40
2023-12-16T17:59:19.950Z,5.30
2023-12-16T18:01:47.619Z,5.30
2023-12-16T18:04:14.832Z,5.30
2023-12-16T18:06:41.963Z,5.30
2023-12-16T18:09:09.188Z,5.30
2023-12-16T18:11:38.760Z,5.20
2023-12-16T18:14:08.596Z,5.20
2023-12-16T18:16:35.806Z,5.20
2023-12-16T18:19:02.747Z,5.20
2023-12-16T18:21:29.652Z,5.20
2023-12-16T18:23:57.075Z,5.10
2023-12-16T18:26:24.480Z,5.10
2023-12-16T18:28:51.308Z,5.10
2023-12-16T18:31:19.248Z,5.10
2023-12-16T18:33:46.841Z,5.10
2023-12-16T18:36:14.116Z,5.00
2023-12-16T18:38:44.200Z,5.00
2023-12-16T18:41:12.536Z,5.00
2023-12-16T18:43:44.121Z,5.00
2023-12-16T18:46:11.020Z,5.00
2023-12-16T18:48:38.323Z,4.90
2023-12-16T18:51:05.476Z,4.90
2023-12-16T18:53:32.383Z,4.90
2023-12-16T18:56:01.806Z,4.90
2023-12-16T18:58:29.800Z,4.80
2023-12-16T19:00:56.820Z,4.80
2023-12-16T19:03:23.868Z,4.80
2023-12-16T19:05:50.770Z,4.80
2023-12-16T19:08:18.776Z,4.80
2023-12-16T19:10:45.608Z,4.80
2023-12-16T19:13:12.428Z,4.80
2023-12-16T19:15:39.271Z,4.80
2023-12-16T19:18:06.207Z,4.80
2023-12-16T19:20:33.431Z,4.80
2023-12-16T19:23:00.315Z,4.80
2023-12-16T19:25:27.280Z,4.80
2023-12-16T19:27:54.140Z,4.80
2023-12-16T19:30:21.149Z,4.80
2023-12-16T19:32:48.144Z,4.70
2023-12-16T19:35:15.216Z,4.70
2023-12-16T19:37:42.486Z,4.60
2023-12-16T19:40:09.832Z,4.60
2023-12-16T19:42:36.646Z,4.60
2023-12-16T19:45:05.732Z,4.60
2023-12-16T19:47:32.750Z,4.60
2023-12-16T19:49:59.697Z,4.60
2023-12-16T19:52:26.636Z,4.60
2023-12-16T19:54:53.464Z,4.60
2023-12-16T19:57:20.459Z,4.50
2023-12-16T19:59:47.392Z,4.50
2023-12-16T20:02:14.269Z,4.40
2023-12-16T20:04:41.484Z,4.40
2023-12-16T20:07:08.462Z,4.40
2023-12-16T20:09:35.938Z,4.40
2023-12-16T20:12:04.575Z,4.40
2023-12-16T20:14:33.996Z,4.30
2023-12-16T20:17:01.279Z,4.20
2023-12-16T20:19:28.210Z,4.20
2023-12-16T20:21:57.323Z,4.20
2023-12-16T20:24:24.306Z,4.10
2023-12-16T20:26:54.975Z,4.20
2023-12-16T20:29:25.058Z,4.10
2023-12-16T20:31:52.970Z,4.10
2023-12-16T20:34:20.216Z,4.00
2023-12-16T20:36:48.495Z,4.00
2023-12-16T20:39:34.214Z,4.00
2023-12-16T20:42:01.120Z,4.00
2023-12-16T20:44:27.983Z,4.00
2023-12-16T20:46:55.145Z,4.00
2023-12-16T20:49:22.334Z,3.90
2023-12-16T20:51:55.251Z,4.00
2023-12-16T20:54:22.056Z,4.00
2023-12-16T20:56:48.964Z,4.00
2023-12-16T20:59:15.840Z,4.00
2023-12-16T21:01:42.657Z,4.10
2023-12-16T21:04:09.675Z,4.10
2023-12-16T21:06:36.648Z,4.10
2023-12-16T21:09:05.540Z,4.10
2023-12-16T21:11:32.583Z,4.20
2023-12-16T21:13:59.446Z,4.10
2023-12-16T21:16:26.343Z,4.10
2023-12-16T21:18:53.333Z,4.20
2023-12-16T21:21:20.459Z,4.10
2023-12-16T21:23:47.396Z,4.10
2023-12-16T21:26:15.799Z,4.10
2023-12-16T21:28:43.737Z,4.20
2023-12-16T21:31:11.170Z,4.20
2023-12-16T21:33:38.097Z,4.20
2023-12-16T21:36:05.512Z,4.20
2023-12-16T21:38:32.391Z,4.20
2023-12-16T21:40:59.176Z,4.20
2023-12-16T21:43:28.404Z,4.20
2023-12-16T21:45:55.248Z,4.20
2023-12-16T21:48:22.307Z,4.20
2023-12-16T21:50:49.283Z,4.10
2023-12-16T21:53:17.750Z,4.10
2023-12-16T21:55:44.633Z,4.10
2023-12-16T21:58:11.462Z,4.10
2023-12-16T22:00:38.383Z,4.10
2023-12-16T22:03:05.341Z,4.10
2023-12-16T22:05:32.329Z,4.10
2023-12-16T22:07:59.176Z,4.10
2023-12-16T22:10:26.056Z,4.10
2023-12-16T22:12:53.548Z,4.10
2023-12-16T22:15:20.464Z,4.00
2023-12-16T22:17:47.450Z,4.00
2023-12-16T22:20:14.359Z,4.00
2023-12-16T22:22:41.195Z,4.00
2023-12-16T22:25:08.957Z,4.00
2023-12-16T22:27:35.988Z,4.00
2023-12-16T22:30:04.455Z,4.00
2023-12-16T22:32:31.579Z,3.90
2023-12-16T22:34:58.463Z,3.90
2023-12-16T22:37:25.521Z,3.90
2023-12-16T22:39:52.350Z,3.90
2023-12-16T22:42:19.369Z,3.90
2023-12-16T22:44:47.603Z,3.90
2023-12-16T22:47:15.348Z,3.90
2023-12-16T22:49:42.408Z,3.90
2023-12-16T22:52:09.493Z,3.90
2023-12-16T22:54:36.344Z,3.90
2023-12-16T22:57:03.316Z,3.90
2023-12-16T22:59:30.195Z,3.90
2023-12-16T23:01:57.103Z,3.80
2023-12-16T23:04:23.915Z,3.90
2023-12-16T23:06:50.773Z,3.80
2023-12-16T23:09:18.442Z,3.80
2023-12-16T23:11:45.547Z,3.80
2023-12-16T23:14:12.409Z,3.80
2023-12-16T23:16:39.235Z,3.80
2023-12-16T23:19:06.153Z,3.80
2023-12-16T23:21:33.098Z,3.80
2023-12-16T23:24:00.594Z,3.80
2023-12-16T23:26:27.486Z,3.70
2023-12-16T23:28:54.333Z,3.70
2023-12-16T23:31:21.176Z,3.70
2023-12-16T23:33:48.240Z,3.70
2023-12-16T23:36:15.440Z,3.70
2023-12-16T23:38:42.444Z,3.60
2023-12-16T23:41:17.008Z,3.60
2023-12-16T23:43:44.579Z,3.70
2023-12-16T23:46:14.223Z,3.70
2023-12-16T23:48:45.794Z,3.50
2023-12-16T23:51:13.719Z,3.50
2023-12-16T23:53:46.998Z,3.50
2023-12-16T23:56:15.167Z,3.40
2023-12-16T23:58:42.416Z,3.40
